Portada
METAR-TAF:

METAR-TAF

Aeroports :

Stuttgart Municipal Airport

Stuttgart, Arkansas, Estats Units d'Amèrica

latitud: 34-36N, longitud: 091-34W, altitud: 68 m

Observació

L'informe es va fer fa 46 minuts, a les 00:56 UTC
Vent 5 kt del Sud/Sud-Oest
Temperatura 33°C
Humitat 67%
Pressió 1013 hPa
Cel clar

METAR: KSGT 250056Z AUTO 21005KT CLR 33/26 A2990 RMK AO2 SLP121 T03330261 PWINO RVRNO $

Hora: 20:42 (01:42 UTC)


TAF: manca

Observacions i pronòstics meteorològics de més de 4000 aeroports (METAR i TAF).

Les estacions disponibles són els punts grocs i vermells al mapa.

Posi el ratolí al punt desitjat per veure el nom de l'estació.

Feu clic per veure les observacions i els pronòstics meteorològics.

Per canviar el mapa: feu clic els botons verds amb una creu de color negre per apropar; al botó verd amb un guió per allunyar la imatge; o en les fletxes verdes per a mapes adjacents.


METAR-TAF: